createdAt,value
2018-10-16T00:00:29.263Z,27.70
2018-10-16T00:01:08.551Z,33.88
2018-10-16T00:01:46.844Z,35.35
2018-10-16T00:02:24.876Z,25.05
2018-10-16T00:03:03.514Z,28.65
2018-10-16T00:03:41.738Z,33.88
2018-10-16T00:04:20.924Z,27.10
2018-10-16T00:04:59.345Z,26.55
2018-10-16T00:05:38.628Z,26.45
2018-10-16T00:06:19.272Z,28.25
2018-10-16T00:06:57.592Z,26.57
2018-10-16T00:07:36.140Z,28.73
2018-10-16T00:08:15.896Z,34.27
2018-10-16T00:08:54.410Z,26.12
2018-10-16T00:09:32.510Z,30.52
2018-10-16T00:10:11.622Z,29.85
2018-10-16T00:10:50.988Z,31.80
2018-10-16T00:11:29.355Z,30.50
2018-10-16T00:12:08.932Z,31.85
2018-10-16T00:12:47.342Z,28.80
2018-10-16T00:13:25.706Z,30.70
2018-10-16T00:14:04.100Z,28.05
2018-10-16T00:14:42.502Z,29.30
2018-10-16T00:15:21.735Z,27.70
2018-10-16T00:16:00.144Z,28.23
2018-10-16T00:16:38.363Z,28.87
2018-10-16T00:17:16.643Z,31.02
2018-10-16T00:17:55.197Z,30.45
2018-10-16T00:18:34.442Z,30.92
2018-10-16T00:19:12.933Z,27.27
2018-10-16T00:19:51.333Z,29.72
2018-10-16T00:20:29.624Z,29.07
2018-10-16T00:21:08.135Z,26.82
2018-10-16T00:21:46.507Z,30.10
2018-10-16T00:22:24.995Z,26.73
2018-10-16T00:23:04.056Z,34.15
2018-10-16T00:23:42.310Z,31.25
2018-10-16T00:24:20.642Z,27.60
2018-10-16T00:24:58.847Z,27.45
2018-10-16T00:25:39.431Z,30.92
2018-10-16T00:26:17.409Z,31.37
2018-10-16T00:26:55.849Z,27.80
2018-10-16T00:27:34.345Z,30.82
2018-10-16T00:28:13.640Z,31.95
2018-10-16T00:28:51.909Z,33.08
2018-10-16T00:29:30.497Z,32.38
2018-10-16T00:30:09.235Z,30.80
2018-10-16T00:30:48.351Z,28.65
2018-10-16T00:31:27.248Z,30.85
2018-10-16T00:32:05.542Z,28.05
2018-10-16T00:32:45.042Z,29.60
2018-10-16T00:33:23.271Z,30.05
2018-10-16T00:34:03.293Z,30.77
2018-10-16T00:34:42.521Z,35.80
2018-10-16T00:35:21.188Z,28.23
2018-10-16T00:35:59.696Z,28.70
2018-10-16T00:36:39.367Z,31.50
2018-10-16T00:37:18.856Z,29.35
2018-10-16T00:37:58.385Z,28.65
2018-10-16T00:38:36.474Z,29.03
2018-10-16T00:39:16.832Z,32.15
2018-10-16T00:39:55.278Z,28.92
2018-10-16T00:40:33.671Z,28.07
2018-10-16T00:41:11.936Z,30.60
2018-10-16T00:41:54.574Z,35.05
2018-10-16T00:42:34.094Z,31.07
2018-10-16T00:43:12.556Z,28.67
2018-10-16T00:43:51.280Z,29.40
2018-10-16T00:44:29.457Z,27.90
2018-10-16T00:45:11.080Z,31.10
2018-10-16T00:45:49.864Z,32.35
2018-10-16T00:46:28.368Z,30.92
2018-10-16T00:47:07.883Z,28.07
2018-10-16T00:47:46.284Z,29.72
2018-10-16T00:48:24.755Z,28.70
2018-10-16T00:49:03.408Z,28.07
2018-10-16T00:49:41.721Z,29.48
2018-10-16T00:50:19.735Z,28.23
2018-10-16T00:50:57.914Z,27.60
2018-10-16T00:51:37.589Z,29.55
2018-10-16T00:52:15.583Z,26.60
2018-10-16T00:52:55.083Z,28.75
2018-10-16T00:53:33.788Z,34.73
2018-10-16T00:54:12.204Z,26.95
2018-10-16T00:54:51.740Z,30.20
2018-10-16T00:55:29.990Z,30.88
2018-10-16T00:56:09.874Z,27.22
2018-10-16T00:56:48.333Z,31.00
2018-10-16T00:57:26.737Z,30.43
2018-10-16T00:58:06.161Z,30.32
2018-10-16T00:58:44.169Z,29.03
2018-10-16T00:59:23.100Z,30.40
2018-10-16T01:00:01.575Z,30.15
2018-10-16T01:00:40.048Z,30.10
2018-10-16T01:01:22.771Z,30.62
2018-10-16T01:02:01.809Z,29.35
2018-10-16T01:02:39.949Z,35.10
2018-10-16T01:03:18.268Z,30.20
2018-10-16T01:03:57.630Z,28.92
2018-10-16T01:04:36.793Z,28.80
2018-10-16T01:05:16.633Z,27.15
2018-10-16T01:05:54.855Z,28.90
2018-10-16T01:06:34.316Z,30.80
2018-10-16T01:07:12.482Z,28.50
2018-10-16T01:07:50.833Z,27.60
2018-10-16T01:08:29.269Z,27.73
2018-10-16T01:09:14.497Z,31.90
2018-10-16T01:09:52.999Z,29.48
2018-10-16T01:10:31.423Z,27.60
2018-10-16T01:11:12.644Z,31.85
2018-10-16T01:11:50.748Z,27.85
2018-10-16T01:12:28.895Z,26.65
2018-10-16T01:13:07.238Z,30.17
2018-10-16T01:13:45.589Z,32.10
2018-10-16T01:14:23.968Z,34.60
2018-10-16T01:15:03.135Z,27.35
2018-10-16T01:15:41.589Z,29.32
2018-10-16T01:16:20.050Z,28.12
2018-10-16T01:16:59.817Z,29.95
2018-10-16T01:17:37.952Z,27.00
2018-10-16T01:18:15.893Z,29.05
2018-10-16T01:18:54.339Z,33.63
2018-10-16T01:19:32.776Z,32.90
2018-10-16T01:20:14.713Z,32.23
2018-10-16T01:20:52.626Z,30.92
2018-10-16T01:21:30.850Z,28.77
2018-10-16T01:22:09.871Z,29.07
2018-10-16T01:22:47.792Z,33.08
2018-10-16T01:23:27.805Z,29.05
2018-10-16T01:24:08.098Z,28.40
2018-10-16T01:24:46.008Z,28.07
2018-10-16T01:25:24.150Z,28.45
2018-10-16T01:26:03.578Z,33.20
2018-10-16T01:26:42.285Z,29.75
2018-10-16T01:27:20.662Z,31.25
2018-10-16T01:27:58.769Z,28.95
2018-10-16T01:28:36.696Z,27.90
2018-10-16T01:29:15.784Z,28.77
2018-10-16T01:29:55.256Z,26.55
2018-10-16T01:30:34.814Z,27.55
2018-10-16T01:31:13.797Z,28.35
2018-10-16T01:31:53.940Z,28.65
2018-10-16T01:32:31.863Z,30.12
2018-10-16T01:33:10.558Z,29.85
2018-10-16T01:33:49.978Z,27.75
2018-10-16T01:34:29.038Z,28.00
2018-10-16T01:35:07.252Z,27.37
2018-10-16T01:35:45.732Z,28.70
2018-10-16T01:36:24.099Z,30.20
2018-10-16T01:37:02.077Z,28.70
2018-10-16T01:37:41.159Z,34.53
2018-10-16T01:38:19.421Z,29.00
2018-10-16T01:38:58.809Z,29.40
2018-10-16T01:39:36.944Z,30.43
2018-10-16T01:40:15.947Z,30.92
2018-10-16T01:40:53.780Z,28.15
2018-10-16T01:41:32.948Z,28.95
2018-10-16T01:42:12.649Z,33.80
2018-10-16T01:42:50.820Z,31.00
2018-10-16T01:43:29.334Z,31.55
2018-10-16T01:44:07.697Z,28.40
2018-10-16T01:44:46.764Z,26.50
2018-10-16T01:45:25.286Z,27.95
2018-10-16T01:46:04.256Z,35.50
2018-10-16T01:46:43.669Z,63.40
2018-10-16T01:47:21.819Z,48.95
2018-10-16T01:48:00.283Z,41.58
2018-10-16T01:48:38.880Z,31.73
2018-10-16T01:49:18.235Z,32.48
2018-10-16T01:49:56.308Z,49.08
2018-10-16T01:50:34.348Z,35.87
2018-10-16T01:51:12.829Z,29.18
2018-10-16T01:51:51.374Z,28.10
2018-10-16T01:52:30.066Z,26.23
2018-10-16T01:53:09.909Z,33.13
2018-10-16T01:53:48.280Z,29.05
2018-10-16T01:54:26.488Z,30.60
2018-10-16T01:55:05.647Z,29.27
2018-10-16T01:55:44.233Z,34.00
2018-10-16T01:56:22.368Z,31.30
2018-10-16T01:57:00.505Z,28.50
2018-10-16T01:57:38.891Z,31.25
2018-10-16T01:58:17.211Z,28.65
2018-10-16T01:58:55.441Z,28.45
2018-10-16T01:59:33.797Z,29.80
2018-10-16T02:00:13.333Z,30.20
2018-10-16T02:00:52.065Z,34.15
2018-10-16T02:01:30.788Z,29.27
2018-10-16T02:02:10.401Z,29.42
2018-10-16T02:02:48.698Z,33.95
2018-10-16T02:03:26.955Z,31.20
2018-10-16T02:04:06.440Z,29.72
2018-10-16T02:04:44.939Z,28.07
2018-10-16T02:05:23.563Z,28.15
2018-10-16T02:06:02.192Z,36.68
2018-10-16T02:06:40.786Z,32.40
2018-10-16T02:07:19.336Z,26.45
2018-10-16T02:07:57.539Z,32.25
2018-10-16T02:08:35.685Z,29.07
2018-10-16T02:09:14.780Z,28.47
2018-10-16T02:09:52.745Z,32.98
2018-10-16T02:10:30.711Z,29.30
2018-10-16T02:11:09.220Z,34.65
2018-10-16T02:11:47.335Z,31.10
2018-10-16T02:12:25.443Z,28.12
2018-10-16T02:13:04.400Z,31.52
2018-10-16T02:13:42.699Z,31.85
2018-10-16T02:14:22.178Z,28.75
2018-10-16T02:15:00.677Z,25.82
2018-10-16T02:15:38.847Z,24.90
2018-10-16T02:16:17.905Z,30.35
2018-10-16T02:16:56.295Z,30.62
2018-10-16T02:17:35.510Z,26.35
2018-10-16T02:18:14.164Z,28.55
2018-10-16T02:18:52.749Z,26.95
2018-10-16T02:19:31.203Z,28.73
2018-10-16T02:20:09.836Z,27.45
2018-10-16T02:20:48.324Z,27.25
2018-10-16T02:21:27.361Z,30.95
2018-10-16T02:22:05.542Z,29.27
2018-10-16T02:22:43.803Z,27.22
2018-10-16T02:23:22.237Z,26.33
2018-10-16T02:24:01.521Z,27.30
2018-10-16T02:24:39.632Z,26.67
2018-10-16T02:25:17.848Z,31.23
2018-10-16T02:25:56.580Z,25.70
2018-10-16T02:26:35.213Z,27.47
2018-10-16T02:27:13.600Z,27.48
2018-10-16T02:27:53.571Z,29.52
2018-10-16T02:28:31.943Z,29.05
2018-10-16T02:29:11.028Z,33.05
2018-10-16T02:29:49.578Z,26.68
2018-10-16T02:30:27.493Z,27.93
2018-10-16T02:31:06.813Z,31.65
2018-10-16T02:31:46.352Z,30.88
2018-10-16T02:32:25.033Z,30.55
2018-10-16T02:33:03.455Z,27.37
2018-10-16T02:33:41.856Z,26.62
2018-10-16T02:34:20.448Z,28.50
2018-10-16T02:35:00.900Z,27.50
2018-10-16T02:35:39.998Z,28.73
2018-10-16T02:36:18.096Z,29.60
2018-10-16T02:36:57.198Z,26.55
2018-10-16T02:37:35.619Z,23.90
2018-10-16T02:38:14.298Z,29.15
2018-10-16T02:38:53.929Z,27.87
2018-10-16T02:39:32.304Z,24.55
2018-10-16T02:40:11.770Z,26.02
2018-10-16T02:40:51.016Z,32.55
2018-10-16T02:41:29.564Z,26.55
2018-10-16T02:42:08.524Z,28.55
2018-10-16T02:42:47.583Z,27.20
2018-10-16T02:43:25.709Z,27.32
2018-10-16T02:44:04.686Z,24.47
2018-10-16T02:44:43.889Z,25.30
2018-10-16T02:45:24.068Z,25.10
2018-10-16T02:46:02.921Z,24.20
2018-10-16T02:46:41.208Z,27.47
2018-10-16T02:47:22.711Z,24.98
2018-10-16T02:48:02.156Z,26.85
2018-10-16T02:48:41.638Z,25.00
2018-10-16T02:49:19.936Z,25.62
2018-10-16T02:49:58.014Z,23.65
2018-10-16T02:50:36.384Z,25.03
2018-10-16T02:51:15.074Z,25.08
2018-10-16T02:51:53.498Z,28.10
2018-10-16T02:52:31.749Z,23.05
2018-10-16T02:53:10.500Z,22.67
2018-10-16T02:53:50.075Z,25.02
2018-10-16T02:54:29.035Z,25.52
2018-10-16T02:55:08.756Z,23.02
2018-10-16T02:55:48.425Z,24.43
2018-10-16T02:56:27.116Z,23.10
2018-10-16T02:57:05.536Z,24.90
2018-10-16T02:57:43.425Z,24.98
2018-10-16T02:58:21.972Z,24.92
2018-10-16T02:59:00.235Z,24.60
2018-10-16T02:59:38.522Z,23.30
2018-10-16T03:00:16.401Z,23.60
2018-10-16T03:00:56.337Z,26.80
2018-10-16T03:01:34.457Z,22.87
2018-10-16T03:02:12.731Z,23.80
2018-10-16T03:02:52.042Z,23.00
2018-10-16T03:03:35.268Z,21.90
2018-10-16T03:04:13.838Z,24.23
2018-10-16T03:04:52.951Z,24.18
2018-10-16T03:05:31.509Z,24.15
2018-10-16T03:06:10.852Z,27.65
2018-10-16T03:06:50.551Z,24.23
2018-10-16T03:07:30.309Z,23.98
2018-10-16T03:08:09.128Z,22.48
2018-10-16T03:08:47.276Z,24.87
2018-10-16T03:09:25.575Z,23.60
2018-10-16T03:10:04.221Z,25.60
2018-10-16T03:10:42.598Z,22.90
2018-10-16T03:11:22.397Z,23.40
2018-10-16T03:12:01.278Z,23.98
2018-10-16T03:12:39.323Z,24.70
2018-10-16T03:13:17.823Z,25.57
2018-10-16T03:13:56.208Z,27.17
2018-10-16T03:14:34.389Z,23.40
2018-10-16T03:15:15.084Z,25.30
2018-10-16T03:15:53.258Z,23.67
2018-10-16T03:16:31.737Z,24.00
2018-10-16T03:17:09.812Z,22.55
2018-10-16T03:17:49.516Z,23.15
2018-10-16T03:18:27.437Z,25.02
2018-10-16T03:19:05.328Z,26.17
2018-10-16T03:19:43.473Z,26.00
2018-10-16T03:20:21.691Z,21.45
2018-10-16T03:21:00.354Z,23.73
2018-10-16T03:21:38.283Z,23.52
2018-10-16T03:22:16.207Z,23.02
2018-10-16T03:22:54.638Z,23.40
2018-10-16T03:23:33.750Z,23.95
2018-10-16T03:24:12.044Z,22.60
2018-10-16T03:24:51.519Z,23.10
2018-10-16T03:25:30.031Z,23.75
2018-10-16T03:26:08.468Z,23.15
2018-10-16T03:26:47.052Z,24.00
2018-10-16T03:27:25.054Z,22.90
2018-10-16T03:28:02.941Z,23.20
2018-10-16T03:28:41.982Z,26.93
2018-10-16T03:29:20.023Z,24.20
2018-10-16T03:29:57.872Z,22.80
2018-10-16T03:30:37.859Z,23.27
2018-10-16T03:31:15.848Z,22.65
2018-10-16T03:31:54.817Z,22.40
2018-10-16T03:32:33.563Z,25.45
2018-10-16T03:33:11.547Z,22.42
2018-10-16T03:33:49.728Z,23.27
2018-10-16T03:34:27.639Z,23.50
2018-10-16T03:35:05.565Z,24.15
2018-10-16T03:35:43.817Z,22.30
2018-10-16T03:36:22.639Z,22.93
2018-10-16T03:37:01.294Z,22.00
2018-10-16T03:37:40.428Z,22.02
2018-10-16T03:38:19.488Z,22.40
2018-10-16T03:38:57.486Z,20.85
2018-10-16T03:39:35.459Z,25.55
2018-10-16T03:40:14.249Z,23.80
2018-10-16T03:40:53.024Z,25.90
2018-10-16T03:41:30.886Z,23.77
2018-10-16T03:42:08.804Z,22.10
2018-10-16T03:42:46.676Z,23.80
2018-10-16T03:43:24.581Z,24.40
2018-10-16T03:44:04.292Z,23.75
2018-10-16T03:44:42.270Z,23.73
2018-10-16T03:45:20.144Z,23.10
2018-10-16T03:45:58.084Z,22.40
2018-10-16T03:46:36.396Z,24.93
2018-10-16T03:47:14.570Z,22.90
2018-10-16T03:47:53.737Z,22.30
2018-10-16T03:48:32.333Z,22.52
2018-10-16T03:49:13.208Z,21.80
2018-10-16T03:49:51.427Z,23.02
2018-10-16T03:50:30.044Z,24.77
2018-10-16T03:51:08.543Z,22.52
2018-10-16T03:51:46.526Z,25.57
2018-10-16T03:52:24.916Z,22.13
2018-10-16T03:53:03.285Z,21.45
2018-10-16T03:53:41.582Z,26.30
2018-10-16T03:54:20.156Z,24.60
2018-10-16T03:54:59.012Z,24.93
2018-10-16T03:55:37.744Z,22.02
2018-10-16T03:56:15.812Z,21.52
2018-10-16T03:56:54.573Z,21.97
2018-10-16T03:57:32.958Z,25.10
2018-10-16T03:58:11.451Z,25.32
2018-10-16T03:58:49.545Z,25.35
2018-10-16T03:59:27.558Z,23.70
2018-10-16T04:00:05.779Z,22.75
2018-10-16T04:00:44.057Z,23.27
2018-10-16T04:01:23.032Z,25.77
2018-10-16T04:02:01.624Z,21.93
2018-10-16T04:02:40.169Z,25.57
2018-10-16T04:03:18.512Z,23.95
2018-10-16T04:03:56.824Z,27.47
2018-10-16T04:04:35.543Z,22.07
2018-10-16T04:05:13.960Z,23.02
2018-10-16T04:05:52.264Z,26.30
2018-10-16T04:06:31.622Z,24.60
2018-10-16T04:07:10.265Z,23.32
2018-10-16T04:07:48.607Z,22.82
2018-10-16T04:08:27.817Z,23.40
2018-10-16T04:09:07.024Z,22.15
2018-10-16T04:09:46.924Z,24.75
2018-10-16T04:10:25.589Z,24.98
2018-10-16T04:11:03.878Z,25.02
2018-10-16T04:11:43.600Z,24.80
2018-10-16T04:12:21.544Z,23.20
2018-10-16T04:12:59.884Z,23.55
2018-10-16T04:13:38.095Z,24.07
2018-10-16T04:14:16.548Z,27.85
2018-10-16T04:14:54.879Z,23.12
2018-10-16T04:15:33.437Z,23.87
2018-10-16T04:16:11.904Z,25.00
2018-10-16T04:16:50.154Z,24.25
2018-10-16T04:17:29.336Z,23.70
2018-10-16T04:18:07.728Z,25.68
2018-10-16T04:18:47.619Z,22.80
2018-10-16T04:19:26.078Z,23.57
2018-10-16T04:20:04.548Z,24.40
2018-10-16T04:20:43.044Z,24.27
2018-10-16T04:21:21.348Z,23.27
2018-10-16T04:21:59.451Z,24.50
2018-10-16T04:22:37.922Z,23.47
2018-10-16T04:23:16.403Z,23.18
2018-10-16T04:23:55.149Z,24.72
2018-10-16T04:24:34.360Z,23.70
2018-10-16T04:25:12.768Z,25.12
2018-10-16T04:25:50.951Z,22.30
2018-10-16T04:26:29.068Z,23.10
2018-10-16T04:27:07.626Z,22.10
2018-10-16T04:27:46.568Z,22.45
2018-10-16T04:28:26.479Z,22.40
2018-10-16T04:29:04.834Z,24.67
2018-10-16T04:29:43.073Z,23.50
2018-10-16T04:30:21.323Z,22.22
2018-10-16T04:30:59.651Z,24.90
2018-10-16T04:31:37.980Z,24.45
2018-10-16T04:32:15.873Z,22.15
2018-10-16T04:32:54.503Z,25.27
2018-10-16T04:33:32.844Z,22.87
2018-10-16T04:34:12.228Z,23.05
2018-10-16T04:34:50.840Z,24.60
2018-10-16T04:35:29.336Z,23.97
2018-10-16T04:36:07.915Z,26.77
2018-10-16T04:36:46.959Z,24.55
2018-10-16T04:37:25.332Z,22.25
2018-10-16T04:38:04.886Z,24.72
2018-10-16T04:38:44.861Z,27.05
2018-10-16T04:39:24.269Z,24.85
2018-10-16T04:40:02.664Z,25.52
2018-10-16T04:40:40.897Z,24.03
2018-10-16T04:41:20.959Z,24.43
2018-10-16T04:42:00.232Z,23.42
2018-10-16T04:42:40.085Z,24.20
2018-10-16T04:43:19.338Z,24.18
2018-10-16T04:43:58.209Z,26.20
2018-10-16T04:44:36.634Z,25.17
2018-10-16T04:45:15.300Z,27.15
2018-10-16T04:45:53.860Z,27.13
2018-10-16T04:46:32.616Z,24.32
2018-10-16T04:47:10.562Z,23.32
2018-10-16T04:47:48.923Z,28.25
2018-10-16T04:48:27.308Z,27.07
2018-10-16T04:49:05.816Z,23.42
2018-10-16T04:49:44.216Z,22.95
2018-10-16T04:50:23.776Z,24.60
2018-10-16T04:51:02.187Z,24.50
2018-10-16T04:51:41.344Z,24.95
2018-10-16T04:52:19.840Z,24.80
2018-10-16T04:52:58.367Z,26.42
2018-10-16T04:53:36.833Z,26.23
2018-10-16T04:54:15.213Z,23.47
2018-10-16T04:54:53.571Z,28.02
2018-10-16T04:55:31.956Z,24.57
2018-10-16T04:56:10.392Z,25.92
2018-10-16T04:56:48.828Z,24.10
2018-10-16T04:57:27.087Z,23.92
2018-10-16T04:58:05.656Z,22.87
2018-10-16T04:58:43.990Z,23.52
2018-10-16T04:59:22.501Z,24.18
2018-10-16T05:00:00.805Z,24.85
2018-10-16T05:00:39.103Z,27.02
2018-10-16T05:01:17.828Z,25.35
2018-10-16T05:01:56.297Z,24.10
2018-10-16T05:02:36.499Z,24.47
2018-10-16T05:03:14.796Z,24.20
2018-10-16T05:03:52.878Z,27.05
2018-10-16T05:04:31.065Z,26.35
2018-10-16T05:05:11.385Z,22.52
2018-10-16T05:05:49.378Z,25.82
2018-10-16T05:06:27.511Z,25.15
2018-10-16T05:07:05.668Z,23.80
2018-10-16T05:07:43.997Z,26.95
2018-10-16T05:08:22.585Z,24.85
2018-10-16T05:09:01.205Z,27.58
2018-10-16T05:09:40.416Z,28.65
2018-10-16T05:10:18.495Z,26.95
2018-10-16T05:10:57.040Z,24.27
2018-10-16T05:11:36.137Z,22.90
2018-10-16T05:12:16.446Z,26.35
2018-10-16T05:12:54.845Z,23.62
2018-10-16T05:13:32.942Z,23.42
2018-10-16T05:14:12.475Z,26.65
2018-10-16T05:14:50.944Z,28.20
2018-10-16T05:15:30.450Z,24.72
2018-10-16T05:16:09.044Z,27.10
2018-10-16T05:16:47.416Z,26.30
2018-10-16T05:17:25.679Z,24.82
2018-10-16T05:18:03.835Z,26.62
2018-10-16T05:18:42.579Z,22.40
2018-10-16T05:19:20.400Z,24.43
2018-10-16T05:20:00.180Z,24.05
2018-10-16T05:20:38.581Z,25.77
2018-10-16T05:21:16.500Z,25.55
2018-10-16T05:21:55.169Z,24.67
2018-10-16T05:22:33.354Z,26.70
2018-10-16T05:23:11.296Z,25.60
2018-10-16T05:23:50.268Z,24.95
2018-10-16T05:24:29.668Z,25.68
2018-10-16T05:25:07.852Z,27.35
2018-10-16T05:25:45.768Z,26.48
2018-10-16T05:26:23.690Z,25.17
2018-10-16T05:27:02.221Z,29.07
2018-10-16T05:27:40.168Z,24.75
2018-10-16T05:28:18.206Z,25.10
2018-10-16T05:28:57.064Z,26.37
2018-10-16T05:29:36.956Z,25.27
2018-10-16T05:30:14.944Z,26.20
2018-10-16T05:30:52.951Z,24.15
2018-10-16T05:31:31.036Z,27.20
2018-10-16T05:32:10.016Z,24.40
2018-10-16T05:32:47.913Z,26.20
2018-10-16T05:33:26.116Z,23.73
2018-10-16T05:34:04.155Z,28.30
2018-10-16T05:34:42.098Z,27.60
2018-10-16T05:35:19.925Z,23.45
2018-10-16T05:35:58.213Z,25.30
2018-10-16T05:36:36.307Z,27.50
2018-10-16T05:37:14.224Z,24.10
2018-10-16T05:37:52.132Z,25.85
2018-10-16T05:38:30.039Z,25.95
2018-10-16T05:39:10.159Z,25.32
2018-10-16T05:39:48.070Z,28.02
2018-10-16T05:40:27.996Z,26.07
2018-10-16T05:41:06.834Z,26.97
2018-10-16T05:41:44.679Z,26.97
2018-10-16T05:42:24.324Z,31.20
2018-10-16T05:43:02.756Z,25.05
2018-10-16T05:43:41.106Z,24.60
2018-10-16T05:44:19.056Z,27.77
2018-10-16T05:44:56.977Z,29.00
2018-10-16T05:45:38.063Z,25.88
2018-10-16T05:46:16.584Z,25.80
2018-10-16T05:46:55.081Z,26.00
2018-10-16T05:47:33.243Z,29.67
2018-10-16T05:48:12.392Z,25.82
2018-10-16T05:48:50.817Z,29.52
2018-10-16T05:49:29.291Z,26.70
2018-10-16T05:50:08.421Z,26.62
2018-10-16T05:50:49.563Z,27.37
2018-10-16T05:51:28.941Z,26.00
2018-10-16T05:52:07.225Z,28.83
2018-10-16T05:52:45.607Z,28.15
2018-10-16T05:53:24.010Z,26.87
2018-10-16T05:54:02.422Z,29.57
2018-10-16T05:54:40.830Z,25.83
2018-10-16T05:55:19.264Z,28.45
2018-10-16T05:56:04.721Z,27.30
2018-10-16T05:56:44.076Z,26.35
2018-10-16T05:57:22.576Z,28.10
2018-10-16T05:58:00.954Z,26.27
2018-10-16T05:58:39.380Z,32.83
2018-10-16T05:59:17.903Z,27.37
2018-10-16T06:00:03.571Z,27.02
2018-10-16T06:00:48.392Z,28.50
2018-10-16T06:01:27.146Z,26.33
2018-10-16T06:02:05.065Z,29.18
2018-10-16T06:02:42.999Z,25.90
2018-10-16T06:03:21.562Z,27.87
2018-10-16T06:04:00.967Z,27.35
2018-10-16T06:04:39.633Z,27.95
2018-10-16T06:05:18.126Z,27.98
2018-10-16T06:05:56.372Z,24.15
2018-10-16T06:06:34.609Z,27.33
2018-10-16T06:07:13.410Z,25.07
2018-10-16T06:07:51.689Z,26.55
2018-10-16T06:08:30.195Z,29.12
2018-10-16T06:09:09.829Z,26.87
2018-10-16T06:09:48.413Z,31.02
2018-10-16T06:10:27.968Z,26.80
2018-10-16T06:11:06.353Z,26.75
2018-10-16T06:11:46.151Z,26.68
2018-10-16T06:12:24.463Z,28.02
2018-10-16T06:13:02.547Z,25.43
2018-10-16T06:13:40.605Z,27.50
2018-10-16T06:14:18.895Z,28.17
2018-10-16T06:14:57.015Z,28.77
2018-10-16T06:15:35.210Z,25.82
2018-10-16T06:16:13.482Z,31.75
2018-10-16T06:16:51.705Z,27.32
2018-10-16T06:17:30.116Z,29.47
2018-10-16T06:18:08.453Z,26.73
2018-10-16T06:18:46.487Z,27.93
2018-10-16T06:19:26.033Z,25.53
2018-10-16T06:20:04.469Z,25.37
2018-10-16T06:20:42.933Z,25.73
2018-10-16T06:21:22.108Z,27.90
2018-10-16T06:22:01.646Z,29.50
2018-10-16T06:22:40.108Z,28.23
2018-10-16T06:23:18.570Z,27.20
2018-10-16T06:23:57.124Z,27.70
2018-10-16T06:24:35.502Z,29.73
2018-10-16T06:25:14.122Z,29.30
2018-10-16T06:25:52.427Z,27.30
2018-10-16T06:26:30.601Z,26.80
2018-10-16T06:27:08.675Z,27.20
2018-10-16T06:27:47.522Z,29.07
2018-10-16T06:28:27.655Z,26.90
2018-10-16T06:29:05.971Z,27.90
2018-10-16T06:29:44.197Z,28.83
2018-10-16T06:30:22.693Z,26.97
2018-10-16T06:31:00.837Z,28.03
2018-10-16T06:31:39.395Z,28.53
2018-10-16T06:32:17.794Z,28.40
2018-10-16T06:32:56.145Z,25.10
2018-10-16T06:33:34.953Z,25.80
2018-10-16T06:34:13.257Z,24.97
2018-10-16T06:34:51.460Z,24.47
2018-10-16T06:35:29.761Z,25.33
2018-10-16T06:36:08.352Z,29.00
2018-10-16T06:36:46.919Z,26.80
2018-10-16T06:37:25.175Z,27.20
2018-10-16T06:38:03.368Z,28.70
2018-10-16T06:38:41.552Z,25.30
2018-10-16T06:39:20.136Z,25.10
2018-10-16T06:39:58.648Z,25.30
2018-10-16T06:40:37.120Z,26.10
2018-10-16T06:41:15.562Z,27.80
2018-10-16T06:41:54.204Z,28.87
2018-10-16T06:42:32.752Z,27.15
2018-10-16T06:43:12.080Z,30.53
2018-10-16T06:43:50.535Z,26.37
2018-10-16T06:44:28.601Z,27.27
2018-10-16T06:45:07.336Z,27.10
2018-10-16T06:45:45.625Z,27.20
2018-10-16T06:46:23.730Z,29.27
2018-10-16T06:47:02.308Z,27.37
2018-10-16T06:47:41.763Z,26.77
2018-10-16T06:48:21.083Z,25.77
2018-10-16T06:48:59.591Z,26.70
2018-10-16T06:49:38.018Z,26.83
2018-10-16T06:50:15.937Z,27.63
2018-10-16T06:50:54.380Z,26.77
2018-10-16T06:51:32.626Z,24.27
2018-10-16T06:52:10.746Z,24.60
2018-10-16T06:52:49.401Z,25.10
2018-10-16T06:53:27.508Z,25.93
2018-10-16T06:54:06.089Z,26.00
2018-10-16T06:54:44.556Z,25.77
2018-10-16T06:55:24.728Z,26.13
2018-10-16T06:56:03.303Z,27.77
2018-10-16T06:56:41.491Z,28.10
2018-10-16T06:57:21.051Z,30.30
2018-10-16T06:57:59.266Z,25.60
2018-10-16T06:58:37.603Z,29.30
2018-10-16T06:59:15.885Z,29.20
2018-10-16T06:59:55.572Z,32.67
2018-10-16T07:00:33.980Z,29.37
2018-10-16T07:01:12.247Z,25.00
2018-10-16T07:01:51.938Z,28.73
2018-10-16T07:02:30.244Z,25.30
2018-10-16T07:03:09.243Z,27.42
2018-10-16T07:03:47.580Z,25.32
2018-10-16T07:04:26.999Z,24.73
2018-10-16T07:05:05.486Z,25.90
2018-10-16T07:05:44.145Z,26.47
2018-10-16T07:06:23.293Z,24.30
2018-10-16T07:07:01.726Z,28.10
2018-10-16T07:07:41.651Z,24.60
2018-10-16T07:08:21.112Z,26.37
2018-10-16T07:08:59.581Z,29.13
2018-10-16T07:09:37.920Z,24.25
2018-10-16T07:10:17.935Z,26.50
2018-10-16T07:10:56.390Z,25.00
2018-10-16T07:11:38.229Z,23.53
2018-10-16T07:12:16.057Z,25.17
2018-10-16T07:12:54.788Z,27.23
2018-10-16T07:13:33.394Z,25.93
2018-10-16T07:14:14.101Z,29.80
2018-10-16T07:14:52.683Z,25.92
2018-10-16T07:15:31.295Z,23.90
2018-10-16T07:16:10.265Z,26.40
2018-10-16T07:16:51.273Z,23.60
2018-10-16T07:17:29.230Z,25.07
2018-10-16T07:18:08.389Z,22.40
2018-10-16T07:18:46.353Z,23.05
2018-10-16T07:19:25.493Z,23.00
2018-10-16T07:20:03.371Z,23.80
2018-10-16T07:20:41.744Z,24.80
2018-10-16T07:21:19.655Z,21.55
2018-10-16T07:21:58.701Z,24.50
2018-10-16T07:22:36.646Z,24.83
2018-10-16T07:23:14.581Z,24.90
2018-10-16T07:23:53.156Z,23.40
2018-10-16T07:24:31.114Z,22.23
2018-10-16T07:25:12.304Z,24.30
2018-10-16T07:25:51.746Z,23.67
2018-10-16T07:26:31.284Z,22.40
2018-10-16T07:27:11.115Z,22.67
2018-10-16T07:27:49.041Z,22.57
2018-10-16T07:28:27.243Z,22.50
2018-10-16T07:29:06.740Z,23.00
2018-10-16T07:29:44.651Z,25.73
2018-10-16T07:30:22.604Z,22.00
2018-10-16T07:31:00.611Z,21.82
2018-10-16T07:31:39.164Z,24.57
2018-10-16T07:32:17.080Z,22.93
2018-10-16T07:32:54.965Z,24.23
2018-10-16T07:33:32.990Z,24.20
2018-10-16T07:34:12.184Z,22.20
2018-10-16T07:34:50.112Z,23.00
2018-10-16T07:35:29.436Z,23.00
2018-10-16T07:36:08.301Z,22.35
2018-10-16T07:36:46.848Z,22.00
2018-10-16T07:37:26.417Z,23.23
2018-10-16T07:38:04.834Z,23.53
2018-10-16T07:38:43.149Z,20.87
2018-10-16T07:39:21.799Z,24.93
2018-10-16T07:40:00.160Z,23.43
2018-10-16T07:40:41.964Z,22.90
2018-10-16T07:41:21.357Z,21.15
2018-10-16T07:41:59.327Z,21.83
2018-10-16T07:42:37.224Z,24.40
2018-10-16T07:43:15.144Z,25.47
2018-10-16T07:43:53.719Z,21.10
2018-10-16T07:44:33.967Z,21.67
2018-10-16T07:45:12.723Z,22.23
2018-10-16T07:45:50.581Z,21.00
2018-10-16T07:46:28.847Z,21.40
2018-10-16T07:47:06.910Z,21.60
2018-10-16T07:47:45.289Z,21.30
2018-10-16T07:48:23.451Z,21.07
2018-10-16T07:49:02.029Z,22.40
2018-10-16T07:49:40.286Z,22.13
2018-10-16T07:50:18.629Z,23.73
2018-10-16T07:50:57.671Z,21.87
2018-10-16T07:51:36.013Z,22.67
2018-10-16T07:52:15.885Z,23.90
2018-10-16T07:52:54.424Z,21.63
2018-10-16T07:53:32.961Z,21.10
2018-10-16T07:54:11.532Z,21.27
2018-10-16T07:54:49.636Z,21.23
2018-10-16T07:55:29.017Z,21.67
2018-10-16T07:56:08.124Z,21.70
2018-10-16T07:56:46.477Z,21.20
2018-10-16T07:57:24.746Z,21.20
2018-10-16T07:58:03.163Z,22.77
2018-10-16T07:58:41.487Z,21.10
2018-10-16T07:59:20.063Z,21.20
2018-10-16T07:59:58.460Z,24.13
2018-10-16T08:00:36.563Z,22.20
2018-10-16T08:01:14.554Z,21.50
2018-10-16T08:01:53.000Z,23.33
2018-10-16T08:02:31.554Z,22.13
2018-10-16T08:03:10.135Z,21.20
2018-10-16T08:03:48.568Z,22.50
2018-10-16T08:04:27.492Z,21.70
2018-10-16T08:05:05.779Z,20.90
2018-10-16T08:05:44.036Z,20.83
2018-10-16T08:06:22.325Z,22.37
2018-10-16T08:07:01.475Z,20.60
2018-10-16T08:07:40.136Z,21.50
2018-10-16T08:08:18.620Z,21.90
2018-10-16T08:08:57.061Z,21.43
2018-10-16T08:09:35.638Z,22.10
2018-10-16T08:10:15.648Z,21.07
2018-10-16T08:10:53.989Z,22.40
2018-10-16T08:11:32.902Z,22.83
2018-10-16T08:12:12.041Z,21.90
2018-10-16T08:12:50.214Z,22.07
2018-10-16T08:13:28.548Z,22.33
2018-10-16T08:14:06.892Z,24.60
2018-10-16T08:14:45.164Z,23.20
2018-10-16T08:15:23.678Z,23.87
2018-10-16T08:16:02.123Z,21.65
2018-10-16T08:16:40.562Z,21.10
2018-10-16T08:17:18.666Z,22.27
2018-10-16T08:17:56.889Z,22.83
2018-10-16T08:18:35.396Z,21.62